Terminal Aerodrome Forecast
Issued by NWS

Home | Current Version | Previous Version | Text Only | Print | Product List | Glossary Off
Versions: 1 2 3 4 5 6 7 8 9 10 11 12 13 14 15 16

000
FTUS43 KICT 041058 AAA
TAFSLN
TAF AMD
KSLN 041058Z 0411/0506 VRB03KT P6SM FEW010 SCT025
      TEMPO 0412/0414 BKN010
     FM041600 31007KT P6SM FEW015
     FM050100 21006KT P6SM SKC=

USA.gov is the U.S. government's official web portal to all federal, state and local government web resources and services.